sensor_id;sensor_type;location;lat;lon;timestamp;P1;durP1;ratioP1;P2;durP2;ratioP2
18796;SDS011;9526;52.612;13.300;2024-02-14T00:01:24;21.03;;;9.57;;
18796;SDS011;9526;52.612;13.300;2024-02-14T00:03:48;17.87;;;8.57;;
18796;SDS011;9526;52.612;13.300;2024-02-14T00:06:12;19.03;;;8.50;;
18796;SDS011;9526;52.612;13.300;2024-02-14T00:08:37;15.73;;;8.10;;
18796;SDS011;9526;52.612;13.300;2024-02-14T00:11:00;17.27;;;8.93;;
18796;SDS011;9526;52.612;13.300;2024-02-14T00:13:24;18.33;;;9.17;;
18796;SDS011;9526;52.612;13.300;2024-02-14T00:15:48;18.47;;;9.50;;
18796;SDS011;9526;52.612;13.300;2024-02-14T00:18:13;20.23;;;9.13;;
18796;SDS011;9526;52.612;13.300;2024-02-14T00:20:37;18.27;;;8.93;;
18796;SDS011;9526;52.612;13.300;2024-02-14T00:23:01;16.83;;;8.83;;
18796;SDS011;9526;52.612;13.300;2024-02-14T00:25:27;21.63;;;9.07;;
18796;SDS011;9526;52.612;13.300;2024-02-14T00:27:51;15.03;;;8.90;;
18796;SDS011;9526;52.612;13.300;2024-02-14T00:30:17;16.70;;;8.70;;
18796;SDS011;9526;52.612;13.300;2024-02-14T00:32:41;19.67;;;8.37;;
18796;SDS011;9526;52.612;13.300;2024-02-14T00:35:05;17.50;;;8.23;;
18796;SDS011;9526;52.612;13.300;2024-02-14T00:37:30;19.20;;;8.90;;
18796;SDS011;9526;52.612;13.300;2024-02-14T00:39:55;14.77;;;8.00;;
18796;SDS011;9526;52.612;13.300;2024-02-14T00:42:21;17.03;;;9.17;;
18796;SDS011;9526;52.612;13.300;2024-02-14T00:44:44;16.37;;;8.70;;
18796;SDS011;9526;52.612;13.300;2024-02-14T00:47:08;19.03;;;8.87;;
18796;SDS011;9526;52.612;13.300;2024-02-14T00:49:34;17.37;;;8.70;;
18796;SDS011;9526;52.612;13.300;2024-02-14T00:51:58;19.97;;;8.33;;
18796;SDS011;9526;52.612;13.300;2024-02-14T00:54:21;18.93;;;8.33;;
18796;SDS011;9526;52.612;13.300;2024-02-14T00:56:45;23.10;;;8.33;;
18796;SDS011;9526;52.612;13.300;2024-02-14T00:59:10;16.80;;;8.70;;
18796;SDS011;9526;52.612;13.300;2024-02-14T01:01:34;18.03;;;8.50;;
18796;SDS011;9526;52.612;13.300;2024-02-14T01:03:58;13.30;;;7.77;;
18796;SDS011;9526;52.612;13.300;2024-02-14T01:06:22;19.93;;;8.70;;
18796;SDS011;9526;52.612;13.300;2024-02-14T01:08:46;16.83;;;8.53;;
18796;SDS011;9526;52.612;13.300;2024-02-14T01:11:10;16.77;;;8.43;;
18796;SDS011;9526;52.612;13.300;2024-02-14T01:13:34;19.13;;;8.53;;
18796;SDS011;9526;52.612;13.300;2024-02-14T01:15:59;19.57;;;8.90;;
18796;SDS011;9526;52.612;13.300;2024-02-14T01:18:23;17.03;;;8.63;;
18796;SDS011;9526;52.612;13.300;2024-02-14T01:20:47;15.97;;;8.17;;
18796;SDS011;9526;52.612;13.300;2024-02-14T01:23:11;17.90;;;8.60;;
18796;SDS011;9526;52.612;13.300;2024-02-14T01:25:35;18.97;;;8.07;;
18796;SDS011;9526;52.612;13.300;2024-02-14T01:27:59;15.27;;;8.17;;
18796;SDS011;9526;52.612;13.300;2024-02-14T01:30:23;17.20;;;7.90;;
18796;SDS011;9526;52.612;13.300;2024-02-14T01:32:48;15.83;;;8.03;;
18796;SDS011;9526;52.612;13.300;2024-02-14T01:35:12;20.23;;;8.43;;
18796;SDS011;9526;52.612;13.300;2024-02-14T01:37:35;17.57;;;8.23;;
18796;SDS011;9526;52.612;13.300;2024-02-14T01:39:59;18.37;;;8.83;;
18796;SDS011;9526;52.612;13.300;2024-02-14T01:42:23;15.10;;;7.90;;
18796;SDS011;9526;52.612;13.300;2024-02-14T01:44:47;13.57;;;7.70;;
18796;SDS011;9526;52.612;13.300;2024-02-14T01:47:10;15.83;;;7.73;;
18796;SDS011;9526;52.612;13.300;2024-02-14T01:49:36;17.17;;;8.03;;
18796;SDS011;9526;52.612;13.300;2024-02-14T01:52:01;17.10;;;7.93;;
18796;SDS011;9526;52.612;13.300;2024-02-14T01:54:27;18.63;;;7.90;;
18796;SDS011;9526;52.612;13.300;2024-02-14T01:56:51;16.90;;;7.90;;
18796;SDS011;9526;52.612;13.300;2024-02-14T01:59:15;16.17;;;8.33;;
18796;SDS011;9526;52.612;13.300;2024-02-14T02:01:39;15.30;;;8.03;;
18796;SDS011;9526;52.612;13.300;2024-02-14T02:04:03;15.30;;;7.67;;
18796;SDS011;9526;52.612;13.300;2024-02-14T02:06:29;18.87;;;8.47;;
18796;SDS011;9526;52.612;13.300;2024-02-14T02:08:53;16.13;;;8.73;;
18796;SDS011;9526;52.612;13.300;2024-02-14T02:11:17;18.37;;;7.90;;
18796;SDS011;9526;52.612;13.300;2024-02-14T02:13:41;18.93;;;7.53;;
18796;SDS011;9526;52.612;13.300;2024-02-14T02:16:05;16.87;;;8.13;;
18796;SDS011;9526;52.612;13.300;2024-02-14T02:18:29;28.00;;;7.57;;
18796;SDS011;9526;52.612;13.300;2024-02-14T02:20:53;16.07;;;7.40;;
18796;SDS011;9526;52.612;13.300;2024-02-14T02:23:18;14.00;;;7.20;;
18796;SDS011;9526;52.612;13.300;2024-02-14T02:25:43;16.70;;;7.93;;
18796;SDS011;9526;52.612;13.300;2024-02-14T02:28:07;15.13;;;7.33;;
18796;SDS011;9526;52.612;13.300;2024-02-14T02:30:31;15.90;;;8.00;;
18796;SDS011;9526;52.612;13.300;2024-02-14T02:32:57;14.97;;;7.67;;
18796;SDS011;9526;52.612;13.300;2024-02-14T02:35:22;16.67;;;7.37;;
18796;SDS011;9526;52.612;13.300;2024-02-14T02:37:46;16.43;;;7.37;;
18796;SDS011;9526;52.612;13.300;2024-02-14T02:40:13;15.57;;;7.30;;
18796;SDS011;9526;52.612;13.300;2024-02-14T02:42:38;15.03;;;7.20;;
18796;SDS011;9526;52.612;13.300;2024-02-14T02:45:02;16.53;;;7.93;;
18796;SDS011;9526;52.612;13.300;2024-02-14T02:47:27;14.87;;;7.33;;
18796;SDS011;9526;52.612;13.300;2024-02-14T02:49:51;16.67;;;7.10;;
18796;SDS011;9526;52.612;13.300;2024-02-14T02:52:15;12.07;;;6.93;;
18796;SDS011;9526;52.612;13.300;2024-02-14T02:54:39;14.50;;;7.23;;
18796;SDS011;9526;52.612;13.300;2024-02-14T02:57:06;13.03;;;7.40;;
18796;SDS011;9526;52.612;13.300;2024-02-14T02:59:31;16.20;;;7.77;;
18796;SDS011;9526;52.612;13.300;2024-02-14T03:01:55;17.37;;;7.03;;
18796;SDS011;9526;52.612;13.300;2024-02-14T03:04:20;16.77;;;7.37;;
18796;SDS011;9526;52.612;13.300;2024-02-14T03:06:57;13.00;;;7.13;;
18796;SDS011;9526;52.612;13.300;2024-02-14T03:09:21;15.03;;;7.30;;
18796;SDS011;9526;52.612;13.300;2024-02-14T03:11:48;15.20;;;7.00;;
18796;SDS011;9526;52.612;13.300;2024-02-14T03:14:13;12.57;;;6.53;;
18796;SDS011;9526;52.612;13.300;2024-02-14T03:16:37;16.83;;;7.40;;
18796;SDS011;9526;52.612;13.300;2024-02-14T03:19:00;20.60;;;7.80;;
18796;SDS011;9526;52.612;13.300;2024-02-14T03:21:25;15.17;;;7.83;;
18796;SDS011;9526;52.612;13.300;2024-02-14T03:23:49;13.50;;;7.33;;
18796;SDS011;9526;52.612;13.300;2024-02-14T03:26:15;12.50;;;7.03;;
18796;SDS011;9526;52.612;13.300;2024-02-14T03:28:39;15.07;;;7.13;;
18796;SDS011;9526;52.612;13.300;2024-02-14T03:31:04;18.20;;;7.60;;
18796;SDS011;9526;52.612;13.300;2024-02-14T03:33:28;14.30;;;6.83;;
18796;SDS011;9526;52.612;13.300;2024-02-14T03:35:52;15.63;;;7.13;;
18796;SDS011;9526;52.612;13.300;2024-02-14T03:38:24;13.87;;;6.87;;
18796;SDS011;9526;52.612;13.300;2024-02-14T03:40:48;13.43;;;7.03;;
18796;SDS011;9526;52.612;13.300;2024-02-14T03:43:12;12.67;;;7.03;;
18796;SDS011;9526;52.612;13.300;2024-02-14T03:45:36;14.23;;;6.70;;
18796;SDS011;9526;52.612;13.300;2024-02-14T03:48:01;16.17;;;7.10;;
18796;SDS011;9526;52.612;13.300;2024-02-14T03:50:26;14.93;;;6.93;;
18796;SDS011;9526;52.612;13.300;2024-02-14T03:52:50;15.10;;;7.37;;
18796;SDS011;9526;52.612;13.300;2024-02-14T03:55:14;14.17;;;7.20;;
18796;SDS011;9526;52.612;13.300;2024-02-14T03:57:40;18.87;;;7.03;;
18796;SDS011;9526;52.612;13.300;2024-02-14T04:00:07;12.27;;;6.67;;
18796;SDS011;9526;52.612;13.300;2024-02-14T04:02:34;17.17;;;7.20;;
18796;SDS011;9526;52.612;13.300;2024-02-14T04:05:02;13.43;;;7.23;;
18796;SDS011;9526;52.612;13.300;2024-02-14T04:07:28;16.97;;;8.03;;
18796;SDS011;9526;52.612;13.300;2024-02-14T04:09:52;17.53;;;7.27;;
18796;SDS011;9526;52.612;13.300;2024-02-14T04:12:16;13.77;;;7.00;;
18796;SDS011;9526;52.612;13.300;2024-02-14T04:14:40;16.77;;;7.27;;
18796;SDS011;9526;52.612;13.300;2024-02-14T04:17:04;14.67;;;7.30;;
18796;SDS011;9526;52.612;13.300;2024-02-14T04:19:30;16.00;;;6.93;;
18796;SDS011;9526;52.612;13.300;2024-02-14T04:21:55;15.60;;;7.30;;
18796;SDS011;9526;52.612;13.300;2024-02-14T04:24:19;14.37;;;7.10;;
18796;SDS011;9526;52.612;13.300;2024-02-14T04:26:43;16.60;;;7.93;;
18796;SDS011;9526;52.612;13.300;2024-02-14T04:29:07;15.40;;;7.87;;
18796;SDS011;9526;52.612;13.300;2024-02-14T04:31:31;16.33;;;7.73;;
18796;SDS011;9526;52.612;13.300;2024-02-14T04:33:55;15.73;;;7.53;;
18796;SDS011;9526;52.612;13.300;2024-02-14T04:36:18;15.10;;;7.27;;
18796;SDS011;9526;52.612;13.300;2024-02-14T04:38:46;20.20;;;8.27;;
18796;SDS011;9526;52.612;13.300;2024-02-14T04:41:10;21.17;;;8.20;;
18796;SDS011;9526;52.612;13.300;2024-02-14T04:43:34;17.63;;;7.97;;
18796;SDS011;9526;52.612;13.300;2024-02-14T04:45:57;15.67;;;7.33;;
18796;SDS011;9526;52.612;13.300;2024-02-14T04:48:21;18.47;;;8.00;;
18796;SDS011;9526;52.612;13.300;2024-02-14T04:50:46;17.30;;;7.60;;
18796;SDS011;9526;52.612;13.300;2024-02-14T04:53:10;16.53;;;8.17;;
18796;SDS011;9526;52.612;13.300;2024-02-14T04:55:35;17.70;;;7.77;;
18796;SDS011;9526;52.612;13.300;2024-02-14T04:57:58;15.30;;;7.33;;
18796;SDS011;9526;52.612;13.300;2024-02-14T05:00:22;18.43;;;8.20;;
18796;SDS011;9526;52.612;13.300;2024-02-14T05:02:46;15.43;;;7.97;;
18796;SDS011;9526;52.612;13.300;2024-02-14T05:05:11;17.43;;;7.73;;
18796;SDS011;9526;52.612;13.300;2024-02-14T05:07:34;14.93;;;7.87;;
18796;SDS011;9526;52.612;13.300;2024-02-14T05:09:58;15.63;;;8.03;;
18796;SDS011;9526;52.612;13.300;2024-02-14T05:12:23;15.23;;;7.80;;
18796;SDS011;9526;52.612;13.300;2024-02-14T05:14:47;14.30;;;7.60;;
18796;SDS011;9526;52.612;13.300;2024-02-14T05:17:11;14.47;;;7.90;;
18796;SDS011;9526;52.612;13.300;2024-02-14T05:19:35;14.87;;;7.47;;
18796;SDS011;9526;52.612;13.300;2024-02-14T05:21:58;16.03;;;7.67;;
18796;SDS011;9526;52.612;13.300;2024-02-14T05:24:22;15.43;;;7.83;;
18796;SDS011;9526;52.612;13.300;2024-02-14T05:26:49;19.40;;;8.87;;
18796;SDS011;9526;52.612;13.300;2024-02-14T05:29:15;15.07;;;8.23;;
18796;SDS011;9526;52.612;13.300;2024-02-14T05:31:43;18.07;;;7.97;;
18796;SDS011;9526;52.612;13.300;2024-02-14T05:34:09;15.57;;;7.63;;
18796;SDS011;9526;52.612;13.300;2024-02-14T05:36:33;15.67;;;7.63;;
18796;SDS011;9526;52.612;13.300;2024-02-14T05:38:57;17.70;;;8.27;;
18796;SDS011;9526;52.612;13.300;2024-02-14T05:41:22;16.00;;;7.70;;
18796;SDS011;9526;52.612;13.300;2024-02-14T05:43:46;17.13;;;8.17;;
18796;SDS011;9526;52.612;13.300;2024-02-14T05:46:12;14.63;;;7.80;;
18796;SDS011;9526;52.612;13.300;2024-02-14T05:48:35;21.23;;;7.80;;
18796;SDS011;9526;52.612;13.300;2024-02-14T05:51:03;19.70;;;8.40;;
18796;SDS011;9526;52.612;13.300;2024-02-14T05:53:27;19.60;;;7.80;;
18796;SDS011;9526;52.612;13.300;2024-02-14T05:55:51;15.17;;;7.67;;
18796;SDS011;9526;52.612;13.300;2024-02-14T05:58:15;21.37;;;8.23;;
18796;SDS011;9526;52.612;13.300;2024-02-14T06:00:38;20.40;;;8.03;;
18796;SDS011;9526;52.612;13.300;2024-02-14T06:03:04;16.87;;;7.97;;
18796;SDS011;9526;52.612;13.300;2024-02-14T06:05:29;13.00;;;7.23;;
18796;SDS011;9526;52.612;13.300;2024-02-14T06:07:52;18.13;;;7.03;;
18796;SDS011;9526;52.612;13.300;2024-02-14T06:10:17;15.67;;;7.10;;
18796;SDS011;9526;52.612;13.300;2024-02-14T06:12:41;18.23;;;7.07;;
18796;SDS011;9526;52.612;13.300;2024-02-14T06:15:06;19.20;;;7.30;;
18796;SDS011;9526;52.612;13.300;2024-02-14T06:17:30;14.87;;;6.33;;
18796;SDS011;9526;52.612;13.300;2024-02-14T06:19:54;14.97;;;7.10;;
18796;SDS011;9526;52.612;13.300;2024-02-14T06:22:18;13.33;;;7.37;;
18796;SDS011;9526;52.612;13.300;2024-02-14T06:24:43;14.87;;;7.30;;
18796;SDS011;9526;52.612;13.300;2024-02-14T06:27:17;14.07;;;6.83;;
18796;SDS011;9526;52.612;13.300;2024-02-14T06:29:42;14.30;;;7.20;;
18796;SDS011;9526;52.612;13.300;2024-02-14T06:32:06;11.73;;;7.10;;
18796;SDS011;9526;52.612;13.300;2024-02-14T06:34:30;12.00;;;7.27;;
18796;SDS011;9526;52.612;13.300;2024-02-14T06:36:55;19.07;;;9.00;;
18796;SDS011;9526;52.612;13.300;2024-02-14T06:39:19;16.03;;;7.77;;
18796;SDS011;9526;52.612;13.300;2024-02-14T06:41:43;12.97;;;7.20;;
18796;SDS011;9526;52.612;13.300;2024-02-14T06:44:08;18.67;;;8.73;;
18796;SDS011;9526;52.612;13.300;2024-02-14T06:46:32;20.03;;;9.00;;
18796;SDS011;9526;52.612;13.300;2024-02-14T06:48:57;14.47;;;7.83;;
18796;SDS011;9526;52.612;13.300;2024-02-14T06:51:21;17.50;;;8.00;;
18796;SDS011;9526;52.612;13.300;2024-02-14T06:53:47;16.30;;;7.83;;
18796;SDS011;9526;52.612;13.300;2024-02-14T06:56:12;11.10;;;6.47;;
18796;SDS011;9526;52.612;13.300;2024-02-14T06:58:36;18.57;;;8.13;;
18796;SDS011;9526;52.612;13.300;2024-02-14T07:00:59;16.20;;;7.97;;
18796;SDS011;9526;52.612;13.300;2024-02-14T07:03:24;16.90;;;7.50;;
18796;SDS011;9526;52.612;13.300;2024-02-14T07:05:48;15.07;;;7.60;;
18796;SDS011;9526;52.612;13.300;2024-02-14T07:08:12;12.70;;;7.07;;
18796;SDS011;9526;52.612;13.300;2024-02-14T07:10:38;20.67;;;7.17;;
18796;SDS011;9526;52.612;13.300;2024-02-14T07:13:02;18.23;;;7.40;;
18796;SDS011;9526;52.612;13.300;2024-02-14T07:15:26;12.40;;;6.53;;
18796;SDS011;9526;52.612;13.300;2024-02-14T07:17:50;15.40;;;7.63;;
18796;SDS011;9526;52.612;13.300;2024-02-14T07:20:14;14.47;;;7.47;;
18796;SDS011;9526;52.612;13.300;2024-02-14T07:22:39;16.37;;;8.00;;
18796;SDS011;9526;52.612;13.300;2024-02-14T07:25:03;15.10;;;7.40;;
18796;SDS011;9526;52.612;13.300;2024-02-14T07:27:31;17.87;;;7.37;;
18796;SDS011;9526;52.612;13.300;2024-02-14T07:29:54;12.73;;;7.27;;
18796;SDS011;9526;52.612;13.300;2024-02-14T07:32:18;14.27;;;6.87;;
18796;SDS011;9526;52.612;13.300;2024-02-14T07:34:43;13.67;;;7.47;;
18796;SDS011;9526;52.612;13.300;2024-02-14T07:37:08;13.70;;;6.77;;
18796;SDS011;9526;52.612;13.300;2024-02-14T07:39:32;13.03;;;6.97;;
18796;SDS011;9526;52.612;13.300;2024-02-14T07:41:56;13.17;;;6.97;;
18796;SDS011;9526;52.612;13.300;2024-02-14T07:44:21;13.03;;;6.17;;
18796;SDS011;9526;52.612;13.300;2024-02-14T07:46:45;13.60;;;6.33;;
18796;SDS011;9526;52.612;13.300;2024-02-14T07:49:09;10.20;;;5.87;;
18796;SDS011;9526;52.612;13.300;2024-02-14T07:51:33;14.33;;;6.47;;
18796;SDS011;9526;52.612;13.300;2024-02-14T07:53:59;11.37;;;6.10;;
18796;SDS011;9526;52.612;13.300;2024-02-14T07:56:23;13.47;;;5.43;;
18796;SDS011;9526;52.612;13.300;2024-02-14T07:58:46;12.27;;;5.53;;
18796;SDS011;9526;52.612;13.300;2024-02-14T08:01:12;9.30;;;5.50;;
18796;SDS011;9526;52.612;13.300;2024-02-14T08:03:36;11.27;;;5.67;;
18796;SDS011;9526;52.612;13.300;2024-02-14T08:06:00;9.87;;;5.80;;
18796;SDS011;9526;52.612;13.300;2024-02-14T08:08:24;7.73;;;4.77;;
18796;SDS011;9526;52.612;13.300;2024-02-14T08:10:49;10.23;;;4.57;;
18796;SDS011;9526;52.612;13.300;2024-02-14T08:13:12;11.43;;;4.90;;
18796;SDS011;9526;52.612;13.300;2024-02-14T08:15:38;12.57;;;5.40;;
18796;SDS011;9526;52.612;13.300;2024-02-14T08:18:04;13.57;;;5.70;;
18796;SDS011;9526;52.612;13.300;2024-02-14T08:20:31;13.47;;;5.03;;
18796;SDS011;9526;52.612;13.300;2024-02-14T08:22:55;12.17;;;4.80;;
18796;SDS011;9526;52.612;13.300;2024-02-14T08:25:19;11.55;;;5.45;;
18796;SDS011;9526;52.612;13.300;2024-02-14T08:27:42;10.30;;;5.10;;
18796;SDS011;9526;52.612;13.300;2024-02-14T08:30:07;10.90;;;5.45;;
18796;SDS011;9526;52.612;13.300;2024-02-14T08:32:34;9.35;;;5.55;;
18796;SDS011;9526;52.612;13.300;2024-02-14T08:34:59;12.90;;;5.10;;
18796;SDS011;9526;52.612;13.300;2024-02-14T08:37:24;14.35;;;5.00;;
18796;SDS011;9526;52.612;13.300;2024-02-14T08:39:47;9.63;;;5.00;;
18796;SDS011;9526;52.612;13.300;2024-02-14T08:42:11;11.63;;;4.85;;
18796;SDS011;9526;52.612;13.300;2024-02-14T08:44:35;9.23;;;4.87;;
18796;SDS011;9526;52.612;13.300;2024-02-14T08:47:00;8.35;;;4.68;;
18796;SDS011;9526;52.612;13.300;2024-02-14T08:49:23;9.88;;;4.85;;
18796;SDS011;9526;52.612;13.300;2024-02-14T08:51:49;6.95;;;4.53;;
18796;SDS011;9526;52.612;13.300;2024-02-14T08:54:12;9.90;;;4.80;;
18796;SDS011;9526;52.612;13.300;2024-02-14T08:56:37;9.03;;;4.60;;
18796;SDS011;9526;52.612;13.300;2024-02-14T08:59:02;9.75;;;4.50;;
18796;SDS011;9526;52.612;13.300;2024-02-14T09:01:28;9.60;;;4.70;;
18796;SDS011;9526;52.612;13.300;2024-02-14T09:03:52;10.93;;;4.20;;
18796;SDS011;9526;52.612;13.300;2024-02-14T09:06:16;9.10;;;4.50;;
18796;SDS011;9526;52.612;13.300;2024-02-14T09:08:43;7.75;;;3.78;;
18796;SDS011;9526;52.612;13.300;2024-02-14T09:11:07;7.90;;;3.97;;
18796;SDS011;9526;52.612;13.300;2024-02-14T09:13:31;5.57;;;3.83;;
18796;SDS011;9526;52.612;13.300;2024-02-14T09:15:55;7.60;;;4.07;;
18796;SDS011;9526;52.612;13.300;2024-02-14T09:18:19;9.07;;;4.22;;
18796;SDS011;9526;52.612;13.300;2024-02-14T09:20:43;8.23;;;3.83;;
18796;SDS011;9526;52.612;13.300;2024-02-14T09:23:08;10.73;;;3.90;;
18796;SDS011;9526;52.612;13.300;2024-02-14T09:25:33;9.00;;;4.53;;
18796;SDS011;9526;52.612;13.300;2024-02-14T09:27:56;7.13;;;3.60;;
18796;SDS011;9526;52.612;13.300;2024-02-14T09:30:20;8.30;;;3.97;;
18796;SDS011;9526;52.612;13.300;2024-02-14T09:32:58;9.77;;;3.92;;
18796;SDS011;9526;52.612;13.300;2024-02-14T09:35:22;14.30;;;4.47;;
18796;SDS011;9526;52.612;13.300;2024-02-14T09:37:47;8.43;;;4.28;;
18796;SDS011;9526;52.612;13.300;2024-02-14T09:40:11;7.85;;;4.22;;
18796;SDS011;9526;52.612;13.300;2024-02-14T09:42:38;8.35;;;4.03;;
18796;SDS011;9526;52.612;13.300;2024-02-14T09:45:07;8.40;;;4.20;;
18796;SDS011;9526;52.612;13.300;2024-02-14T09:47:40;7.90;;;3.65;;
18796;SDS011;9526;52.612;13.300;2024-02-14T09:50:05;11.65;;;4.28;;
18796;SDS011;9526;52.612;13.300;2024-02-14T09:52:31;8.57;;;3.90;;
18796;SDS011;9526;52.612;13.300;2024-02-14T09:54:56;9.45;;;3.88;;
18796;SDS011;9526;52.612;13.300;2024-02-14T09:57:20;6.88;;;3.50;;
18796;SDS011;9526;52.612;13.300;2024-02-14T09:59:46;7.82;;;3.80;;
18796;SDS011;9526;52.612;13.300;2024-02-14T10:02:11;9.82;;;3.92;;
18796;SDS011;9526;52.612;13.300;2024-02-14T10:04:35;8.60;;;4.63;;
18796;SDS011;9526;52.612;13.300;2024-02-14T10:06:59;8.43;;;4.30;;
18796;SDS011;9526;52.612;13.300;2024-02-14T10:09:25;10.00;;;4.00;;
18796;SDS011;9526;52.612;13.300;2024-02-14T10:11:50;6.97;;;3.38;;
18796;SDS011;9526;52.612;13.300;2024-02-14T10:14:14;7.93;;;4.07;;
18796;SDS011;9526;52.612;13.300;2024-02-14T10:16:39;11.45;;;3.97;;
18796;SDS011;9526;52.612;13.300;2024-02-14T10:19:03;6.70;;;3.83;;
18796;SDS011;9526;52.612;13.300;2024-02-14T10:21:29;6.00;;;3.40;;
18796;SDS011;9526;52.612;13.300;2024-02-14T10:23:55;7.35;;;3.65;;
18796;SDS011;9526;52.612;13.300;2024-02-14T10:26:22;7.43;;;3.67;;
18796;SDS011;9526;52.612;13.300;2024-02-14T10:28:46;6.07;;;3.35;;
18796;SDS011;9526;52.612;13.300;2024-02-14T10:31:12;9.27;;;4.10;;
18796;SDS011;9526;52.612;13.300;2024-02-14T10:33:37;8.18;;;3.92;;
18796;SDS011;9526;52.612;13.300;2024-02-14T10:36:02;8.95;;;3.97;;
18796;SDS011;9526;52.612;13.300;2024-02-14T10:38:29;7.35;;;3.63;;
18796;SDS011;9526;52.612;13.300;2024-02-14T10:40:55;9.65;;;3.95;;
18796;SDS011;9526;52.612;13.300;2024-02-14T10:43:21;7.00;;;3.75;;
18796;SDS011;9526;52.612;13.300;2024-02-14T10:45:46;10.32;;;4.15;;
18796;SDS011;9526;52.612;13.300;2024-02-14T10:48:11;9.48;;;4.15;;
18796;SDS011;9526;52.612;13.300;2024-02-14T10:50:37;8.23;;;3.45;;
18796;SDS011;9526;52.612;13.300;2024-02-14T10:53:04;7.57;;;3.80;;
18796;SDS011;9526;52.612;13.300;2024-02-14T10:55:30;10.15;;;3.90;;
18796;SDS011;9526;52.612;13.300;2024-02-14T10:57:56;6.72;;;3.53;;
18796;SDS011;9526;52.612;13.300;2024-02-14T11:00:21;10.40;;;3.45;;
18796;SDS011;9526;52.612;13.300;2024-02-14T11:02:45;10.95;;;3.38;;
18796;SDS011;9526;52.612;13.300;2024-02-14T11:05:13;9.95;;;3.88;;
18796;SDS011;9526;52.612;13.300;2024-02-14T11:07:43;5.43;;;3.60;;
18796;SDS011;9526;52.612;13.300;2024-02-14T11:10:09;6.47;;;3.50;;
18796;SDS011;9526;52.612;13.300;2024-02-14T11:12:39;5.20;;;3.13;;
18796;SDS011;9526;52.612;13.300;2024-02-14T11:15:11;11.88;;;3.72;;
18796;SDS011;9526;52.612;13.300;2024-02-14T11:17:41;10.82;;;3.58;;
18796;SDS011;9526;52.612;13.300;2024-02-14T11:20:14;8.90;;;3.60;;
18796;SDS011;9526;52.612;13.300;2024-02-14T11:22:52;10.60;;;4.35;;
18796;SDS011;9526;52.612;13.300;2024-02-14T11:25:18;9.93;;;3.95;;
18796;SDS011;9526;52.612;13.300;2024-02-14T11:27:48;9.30;;;3.80;;
18796;SDS011;9526;52.612;13.300;2024-02-14T11:30:13;5.80;;;3.40;;
18796;SDS011;9526;52.612;13.300;2024-02-14T11:32:38;7.20;;;3.20;;
18796;SDS011;9526;52.612;13.300;2024-02-14T11:35:04;5.53;;;3.60;;
18796;SDS011;9526;52.612;13.300;2024-02-14T11:37:30;6.47;;;3.00;;
18796;SDS011;9526;52.612;13.300;2024-02-14T11:39:56;6.00;;;3.30;;
18796;SDS011;9526;52.612;13.300;2024-02-14T11:42:21;5.47;;;2.95;;
18796;SDS011;9526;52.612;13.300;2024-02-14T11:44:48;6.55;;;2.90;;
18796;SDS011;9526;52.612;13.300;2024-02-14T11:47:13;4.80;;;3.08;;
18796;SDS011;9526;52.612;13.300;2024-02-14T11:49:38;6.40;;;3.05;;
18796;SDS011;9526;52.612;13.300;2024-02-14T11:52:04;4.95;;;3.00;;
18796;SDS011;9526;52.612;13.300;2024-02-14T11:54:33;10.07;;;3.55;;
18796;SDS011;9526;52.612;13.300;2024-02-14T11:57:00;6.55;;;3.20;;
18796;SDS011;9526;52.612;13.300;2024-02-14T11:59:25;5.93;;;3.47;;
18796;SDS011;9526;52.612;13.300;2024-02-14T12:01:50;5.22;;;3.03;;
18796;SDS011;9526;52.612;13.300;2024-02-14T12:04:17;7.82;;;3.50;;
18796;SDS011;9526;52.612;13.300;2024-02-14T12:06:42;9.90;;;3.65;;
18796;SDS011;9526;52.612;13.300;2024-02-14T12:09:08;8.05;;;3.53;;
18796;SDS011;9526;52.612;13.300;2024-02-14T12:11:35;6.88;;;3.38;;
18796;SDS011;9526;52.612;13.300;2024-02-14T12:14:04;6.60;;;3.63;;
18796;SDS011;9526;52.612;13.300;2024-02-14T12:16:31;7.90;;;3.03;;
18796;SDS011;9526;52.612;13.300;2024-02-14T12:19:05;5.45;;;3.55;;
18796;SDS011;9526;52.612;13.300;2024-02-14T12:21:33;10.30;;;3.75;;
18796;SDS011;9526;52.612;13.300;2024-02-14T12:23:59;11.02;;;5.53;;
18796;SDS011;9526;52.612;13.300;2024-02-14T12:26:25;9.65;;;4.53;;
18796;SDS011;9526;52.612;13.300;2024-02-14T12:28:51;6.57;;;3.47;;
18796;SDS011;9526;52.612;13.300;2024-02-14T12:31:23;18.15;;;8.35;;
18796;SDS011;9526;52.612;13.300;2024-02-14T12:33:48;18.90;;;8.63;;
18796;SDS011;9526;52.612;13.300;2024-02-14T12:36:17;10.63;;;5.28;;
18796;SDS011;9526;52.612;13.300;2024-02-14T12:38:42;9.98;;;4.65;;
18796;SDS011;9526;52.612;13.300;2024-02-14T12:41:07;7.55;;;4.32;;
18796;SDS011;9526;52.612;13.300;2024-02-14T12:43:32;8.13;;;4.28;;
18796;SDS011;9526;52.612;13.300;2024-02-14T12:45:58;7.30;;;3.60;;
18796;SDS011;9526;52.612;13.300;2024-02-14T12:48:24;8.55;;;3.90;;
18796;SDS011;9526;52.612;13.300;2024-02-14T12:50:50;7.05;;;3.72;;
18796;SDS011;9526;52.612;13.300;2024-02-14T12:53:15;9.18;;;4.13;;
18796;SDS011;9526;52.612;13.300;2024-02-14T12:55:41;6.82;;;3.50;;
18796;SDS011;9526;52.612;13.300;2024-02-14T12:58:06;9.38;;;4.05;;
18796;SDS011;9526;52.612;13.300;2024-02-14T13:00:31;5.63;;;3.22;;
18796;SDS011;9526;52.612;13.300;2024-02-14T13:02:56;4.72;;;3.42;;
18796;SDS011;9526;52.612;13.300;2024-02-14T13:05:23;7.50;;;3.70;;
18796;SDS011;9526;52.612;13.300;2024-02-14T13:07:47;8.02;;;3.20;;
18796;SDS011;9526;52.612;13.300;2024-02-14T13:10:12;8.90;;;3.63;;
18796;SDS011;9526;52.612;13.300;2024-02-14T13:12:35;6.78;;;3.72;;
18796;SDS011;9526;52.612;13.300;2024-02-14T13:15:00;6.03;;;3.78;;
18796;SDS011;9526;52.612;13.300;2024-02-14T13:17:24;7.22;;;3.50;;
18796;SDS011;9526;52.612;13.300;2024-02-14T13:19:49;7.20;;;3.20;;
18796;SDS011;9526;52.612;13.300;2024-02-14T13:22:18;6.43;;;3.70;;
18796;SDS011;9526;52.612;13.300;2024-02-14T13:24:42;7.63;;;3.40;;
18796;SDS011;9526;52.612;13.300;2024-02-14T13:27:09;7.53;;;3.30;;
18796;SDS011;9526;52.612;13.300;2024-02-14T13:29:33;7.57;;;3.63;;
18796;SDS011;9526;52.612;13.300;2024-02-14T13:31:56;6.53;;;3.80;;
18796;SDS011;9526;52.612;13.300;2024-02-14T13:34:22;9.40;;;4.00;;
18796;SDS011;9526;52.612;13.300;2024-02-14T13:36:46;7.70;;;3.38;;
18796;SDS011;9526;52.612;13.300;2024-02-14T13:39:14;5.18;;;3.40;;
18796;SDS011;9526;52.612;13.300;2024-02-14T13:41:40;8.48;;;3.78;;
18796;SDS011;9526;52.612;13.300;2024-02-14T13:44:06;7.35;;;3.75;;
18796;SDS011;9526;52.612;13.300;2024-02-14T13:46:30;6.88;;;3.50;;
18796;SDS011;9526;52.612;13.300;2024-02-14T13:48:54;6.47;;;3.50;;
18796;SDS011;9526;52.612;13.300;2024-02-14T13:51:18;7.45;;;3.65;;
18796;SDS011;9526;52.612;13.300;2024-02-14T13:53:42;7.60;;;4.00;;
18796;SDS011;9526;52.612;13.300;2024-02-14T13:56:08;7.47;;;3.45;;
18796;SDS011;9526;52.612;13.300;2024-02-14T13:58:32;7.78;;;3.95;;
18796;SDS011;9526;52.612;13.300;2024-02-14T14:00:56;7.00;;;3.75;;
18796;SDS011;9526;52.612;13.300;2024-02-14T14:03:20;7.55;;;4.32;;
18796;SDS011;9526;52.612;13.300;2024-02-14T14:05:44;8.40;;;3.97;;
18796;SDS011;9526;52.612;13.300;2024-02-14T14:08:08;7.57;;;4.07;;
18796;SDS011;9526;52.612;13.300;2024-02-14T14:10:32;5.88;;;3.53;;
18796;SDS011;9526;52.612;13.300;2024-02-14T14:12:58;6.18;;;3.88;;
18796;SDS011;9526;52.612;13.300;2024-02-14T14:15:21;6.88;;;3.88;;
18796;SDS011;9526;52.612;13.300;2024-02-14T14:17:46;6.10;;;4.38;;
18796;SDS011;9526;52.612;13.300;2024-02-14T14:20:10;7.78;;;4.38;;
18796;SDS011;9526;52.612;13.300;2024-02-14T14:22:34;8.43;;;4.70;;
18796;SDS011;9526;52.612;13.300;2024-02-14T14:24:59;10.18;;;4.45;;